Terminal Aerodrome Forecast
Issued by NWS

Home | Current Version | Previous Version | Text Only | Print | Product List | Glossary On
Versions: 1 2 3 4 5 6 7 8 9 10 11 12 13 14 15 16 17 18 19 20 21 22 23 24 25 26 27
000
FTUS41 KBUF 061739
TAFIAG
TAF
KIAG 061739Z 0618/0718 10005KT P6SM FEW035 SCT250
     FM062000 VRB03KT P6SM BKN035 BKN200
     FM070100 19004KT P6SM BKN070
     FM071200 21010KT P6SM SCT110
     FM071600 21015G21KT P6SM FEW040 SCT250
     FM071700 22017G24KT P6SM VCSH SCT040 BKN130=

USA.gov is the U.S. government's official web portal to all federal, state and local government web resources and services.